Time;durP1;ratioP1;P1;durP2;ratioP2;P2;SDS_P1;SDS_P2;PMS_P1;PMS_P2;Temp;Humidity;BMP_temperature;BMP_pressure;BME280_temperature;BME280_humidity;BME280_pressure;Samples;Min_cycle;Max_cycle;Signal;HPM_P1;HPM_P2
2022/11/08 00:03:03;;;;;;;11.53;7.33;;;10.90;99.90;;;;;;10052839;29;20265;-85
2022/11/08 00:18:48;;;;;;;15.70;9.27;;;9.90;99.90;;;;;;10047150;29;20325;-85
2022/11/08 00:23:50;;;;;;;14.20;9.63;;;9.60;99.90;;;;;;10012351;29;20325;-85
2022/11/08 00:28:53;;;;;;;19.83;9.07;;;9.30;99.90;;;;;;10024927;29;20246;-85
2022/11/08 00:33:56;;;;;;;20.37;10.93;;;9.10;99.90;;;;;;10013626;29;20709;-85
2022/11/08 00:38:58;;;;;;;16.97;9.80;;;8.90;99.90;;;;;;10001282;29;20665;-85
2022/11/08 00:44:01;;;;;;;15.67;9.87;;;8.90;99.90;;;;;;10008634;29;20291;-85
2022/11/08 00:49:04;;;;;;;19.60;10.17;;;8.70;99.90;;;;;;10013317;29;20291;-85
2022/11/08 00:54:07;;;;;;;14.63;9.13;;;8.60;99.90;;;;;;9986275;29;20599;-85
2022/11/08 00:59:11;;;;;;;13.83;8.60;;;8.60;99.90;;;;;;10004421;29;20319;-85
2022/11/08 01:04:17;;;;;;;15.27;8.80;;;8.60;99.90;;;;;;10055903;29;20273;-85
2022/11/08 01:09:19;;;;;;;18.10;10.97;;;8.40;99.90;;;;;;10027204;29;20270;-85
2022/11/08 01:14:21;;;;;;;17.20;10.97;;;8.20;99.90;;;;;;10056267;29;20253;-85
2022/11/08 01:19:24;;;;;;;14.03;9.73;;;8.10;99.90;;;;;;10016623;29;20717;-85
2022/11/08 01:24:26;;;;;;;18.83;9.53;;;8.10;99.90;;;;;;10047564;29;20264;-85
2022/11/08 01:29:29;;;;;;;16.90;9.93;;;8.20;99.90;;;;;;10039996;29;20774;-85
2022/11/08 01:34:31;;;;;;;16.93;10.00;;;8.30;99.90;;;;;;10023770;29;20703;-85
2022/11/08 01:39:34;;;;;;;17.27;11.13;;;8.20;99.90;;;;;;10045281;29;20326;-85
2022/11/08 01:44:59;;;;;;;22.50;10.70;;;8.10;99.90;;;;;;10052666;29;20269;-85
2022/11/08 01:50:04;;;;;;;21.40;10.30;;;8.00;99.90;;;;;;10055877;29;20298;-85
2022/11/08 01:55:16;;;;;;;20.53;10.63;;;8.00;99.90;;;;;;10049766;29;20728;-85
2022/11/08 02:00:18;;;;;;;17.63;10.40;;;8.00;99.90;;;;;;10054720;29;20303;-85
2022/11/08 02:05:24;;;;;;;20.13;11.13;;;8.00;99.90;;;;;;10052002;29;20791;-85
2022/11/08 02:10:38;;;;;;;13.07;9.03;;;8.00;99.90;;;;;;10029826;29;20249;-85
2022/11/08 02:15:42;;;;;;;17.07;10.10;;;7.80;99.90;;;;;;10022424;29;20242;-85
2022/11/08 02:21:13;;;;;;;19.23;11.20;;;7.70;99.90;;;;;;10052931;29;20248;-85
2022/11/08 02:26:18;;;;;;;17.47;10.53;;;7.50;99.90;;;;;;10050553;29;20274;-85
2022/11/08 02:31:21;;;;;;;16.10;10.23;;;7.50;99.90;;;;;;10033129;29;20249;-84
2022/11/08 02:36:23;;;;;;;21.83;11.67;;;7.30;99.90;;;;;;10047735;29;20272;-85
2022/11/08 02:41:26;;;;;;;19.60;11.87;;;7.30;99.90;;;;;;10011983;29;20242;-85
2022/11/08 02:46:28;;;;;;;18.57;12.33;;;7.30;99.90;;;;;;10014288;29;20313;-85
2022/11/08 02:51:31;;;;;;;19.13;11.60;;;7.20;99.90;;;;;;10035387;29;20899;-85
2022/11/08 02:56:34;;;;;;;24.63;13.40;;;6.90;99.90;;;;;;10052361;29;20702;-85
2022/11/08 03:01:36;;;;;;;33.43;13.20;;;6.80;99.90;;;;;;10022163;29;20298;-85
2022/11/08 03:06:39;;;;;;;26.40;14.13;;;6.70;99.90;;;;;;10032585;29;20725;-85
2022/11/08 03:11:42;;;;;;;24.13;12.00;;;6.60;99.90;;;;;;10039413;29;20280;-85
2022/11/08 03:16:44;;;;;;;18.07;11.43;;;6.60;99.90;;;;;;10026021;29;20278;-85
2022/11/08 03:21:46;;;;;;;20.47;11.23;;;6.40;99.90;;;;;;10045899;29;20698;-85
2022/11/08 03:26:49;;;;;;;16.33;11.20;;;6.40;99.90;;;;;;10002187;29;20326;-84
2022/11/08 03:31:51;;;;;;;19.60;11.20;;;6.20;99.90;;;;;;10021850;29;20253;-85
2022/11/08 03:36:54;;;;;;;19.47;10.60;;;6.10;99.90;;;;;;10021886;29;20333;-85
2022/11/08 03:41:59;;;;;;;15.73;11.30;;;6.00;99.90;;;;;;10015793;29;20245;-85
2022/11/08 03:47:02;;;;;;;19.77;11.20;;;5.90;99.90;;;;;;10030801;29;20723;-84
2022/11/08 03:52:04;;;;;;;20.83;10.90;;;5.70;99.90;;;;;;10027067;29;20249;-85
2022/11/08 03:57:06;;;;;;;16.43;10.43;;;5.70;99.90;;;;;;10051547;29;20309;-85
2022/11/08 04:02:09;;;;;;;20.90;10.77;;;5.60;99.90;;;;;;10051960;29;20751;-85
2022/11/08 04:07:11;;;;;;;17.83;11.30;;;5.60;99.90;;;;;;10008129;29;20321;-85
2022/11/08 04:22:56;;;;;;;19.30;10.93;;;5.60;99.90;;;;;;10041576;29;20694;-85
2022/11/08 04:27:58;;;;;;;20.27;12.03;;;5.70;99.90;;;;;;10047916;29;20253;-85
2022/11/08 04:33:03;;;;;;;23.17;14.83;;;5.60;99.90;;;;;;10048301;29;20313;-85
2022/11/08 04:38:05;;;;;;;23.43;16.07;;;5.50;99.90;;;;;;10049371;29;20403;-85
2022/11/08 04:43:07;;;;;;;27.43;17.30;;;5.50;99.90;;;;;;10038847;29;20261;-85
2022/11/08 04:48:10;;;;;;;26.17;15.47;;;5.50;99.90;;;;;;10034114;29;20214;-85
2022/11/08 04:53:12;;;;;;;23.87;14.60;;;5.50;99.90;;;;;;10048561;29;20245;-85
2022/11/08 04:58:15;;;;;;;40.20;22.97;;;5.60;99.90;;;;;;10025854;29;20912;-85
2022/11/08 05:03:18;;;;;;;45.73;25.17;;;5.40;99.90;;;;;;10017908;29;20392;-85
2022/11/08 05:08:20;;;;;;;38.10;20.73;;;5.50;99.90;;;;;;9990903;29;20246;-85
2022/11/08 05:13:23;;;;;;;33.60;18.17;;;5.50;99.90;;;;;;10014953;29;20253;-85
2022/11/08 05:18:26;;;;;;;27.97;16.33;;;5.40;99.90;;;;;;10013063;29;20262;-85
2022/11/08 05:23:28;;;;;;;25.20;14.70;;;5.30;99.90;;;;;;10021813;29;20314;-85
2022/11/08 05:28:31;;;;;;;28.97;14.27;;;5.40;99.90;;;;;;10048112;29;20241;-85
2022/11/08 05:33:34;;;;;;;20.40;12.00;;;5.60;99.90;;;;;;10014556;29;20221;-85
2022/11/08 05:38:38;;;;;;;29.70;16.30;;;5.60;99.90;;;;;;10031709;29;20302;-85
2022/11/08 05:43:42;;;;;;;31.50;16.47;;;5.60;99.90;;;;;;10029153;29;20671;-85
2022/11/08 05:48:47;;;;;;;36.57;15.70;;;5.70;99.90;;;;;;10038909;29;20677;-85
2022/11/08 05:53:49;;;;;;;30.07;17.00;;;5.60;99.90;;;;;;10024799;29;20650;-85
2022/11/08 05:58:52;;;;;;;34.03;17.17;;;5.70;99.90;;;;;;10013662;29;20301;-85
2022/11/08 06:03:54;;;;;;;65.67;29.67;;;5.60;99.90;;;;;;10013797;29;20300;-85
2022/11/08 06:08:57;;;;;;;108.83;44.07;;;5.80;99.90;;;;;;10051625;29;20705;-84
2022/11/08 06:13:59;;;;;;;117.03;46.57;;;5.70;99.90;;;;;;10029490;29;20767;-85
2022/11/08 06:19:02;;;;;;;96.20;38.90;;;5.80;99.90;;;;;;10044416;29;20245;-85
2022/11/08 06:24:05;;;;;;;72.37;33.90;;;6.00;99.90;;;;;;10039761;29;20744;-85
2022/11/08 06:29:08;;;;;;;75.97;32.50;;;6.00;99.90;;;;;;10043730;29;20241;-86
2022/11/08 06:34:11;;;;;;;78.67;34.53;;;6.00;99.90;;;;;;10019178;29;20659;-84
2022/11/08 06:39:13;;;;;;;75.80;37.33;;;6.10;99.90;;;;;;10046361;29;20297;-84
2022/11/08 06:44:15;;;;;;;70.10;31.10;;;5.90;99.90;;;;;;10015908;29;20265;-84
2022/11/08 06:49:18;;;;;;;64.73;31.97;;;6.10;99.90;;;;;;10014238;29;20234;-84
2022/11/08 06:54:20;;;;;;;82.60;38.93;;;6.20;99.90;;;;;;10038858;29;20293;-84
2022/11/08 06:59:28;;;;;;;86.40;40.63;;;6.20;99.90;;;;;;10050570;29;20751;-85
2022/11/08 07:04:30;;;;;;;34.40;19.03;;;6.20;99.90;;;;;;10021957;29;20662;-84
2022/11/08 07:09:33;;;;;;;57.40;28.87;;;7.40;99.90;;;;;;10050197;29;20278;-84
2022/11/08 07:14:35;;;;;;;38.70;21.03;;;6.70;99.90;;;;;;10053784;29;20245;-84
2022/11/08 07:19:37;;;;;;;47.93;25.63;;;6.60;99.90;;;;;;10034763;29;20744;-84
2022/11/08 07:24:40;;;;;;;33.83;20.70;;;7.00;99.90;;;;;;10003317;29;20303;-85
2022/11/08 07:29:42;;;;;;;32.80;21.07;;;7.40;99.90;;;;;;10021168;29;20249;-85
2022/11/08 07:34:45;;;;;;;35.80;19.47;;;7.50;99.90;;;;;;10052066;29;20446;-84
2022/11/08 07:39:48;;;;;;;39.57;21.17;;;7.70;99.90;;;;;;10052329;29;20277;-84
2022/11/08 07:44:50;;;;;;;39.63;24.27;;;7.80;99.90;;;;;;10033675;29;20719;-85
2022/11/08 07:49:53;;;;;;;34.03;21.03;;;8.10;99.90;;;;;;10047141;29;20241;-85
2022/11/08 07:54:55;;;;;;;37.67;18.03;;;8.50;99.90;;;;;;10031950;29;20278;-84
2022/11/08 07:59:58;;;;;;;28.83;17.17;;;8.60;99.90;;;;;;10005627;29;20777;-84
2022/11/08 08:05:13;;;;;;;19.40;12.77;;;8.80;99.90;;;;;;10021824;29;20322;-85
2022/11/08 08:10:15;;;;;;;22.80;12.47;;;9.00;99.90;;;;;;9996632;29;20703;-85
2022/11/08 08:15:18;;;;;;;20.40;11.40;;;9.20;99.90;;;;;;9997733;29;20250;-83
2022/11/08 08:20:20;;;;;;;18.13;12.07;;;9.40;99.90;;;;;;10039412;29;20297;-83
2022/11/08 08:25:23;;;;;;;16.70;11.67;;;9.60;99.90;;;;;;10004815;29;20336;-83
2022/11/08 08:30:27;;;;;;;19.90;11.70;;;9.70;99.90;;;;;;10031727;29;20241;-84
2022/11/08 08:35:30;;;;;;;19.10;10.60;;;;;;;;;;10050784;29;20297;-83
2022/11/08 08:40:33;;;;;;;23.40;14.50;;;10.20;99.90;;;;;;10050699;29;20265;-84
2022/11/08 08:45:36;;;;;;;25.73;14.87;;;10.20;99.90;;;;;;10050238;29;20269;-84
2022/11/08 08:50:38;;;;;;;22.10;12.60;;;10.40;99.90;;;;;;10049634;29;20242;-85
2022/11/08 08:55:41;;;;;;;23.50;13.20;;;10.70;99.90;;;;;;10048538;29;20256;-83
2022/11/08 09:00:44;;;;;;;19.57;11.37;;;10.90;99.90;;;;;;10033166;29;20249;-83
2022/11/08 09:06:07;;;;;;;16.70;10.67;;;11.20;99.90;;;;;;10015800;29;20265;-84
2022/11/08 09:11:10;;;;;;;21.90;11.43;;;11.10;99.90;;;;;;10047339;29;20278;-84
2022/11/08 09:16:13;;;;;;;18.73;12.20;;;11.70;99.90;;;;;;10047072;29;20298;-84
2022/11/08 09:21:16;;;;;;;18.90;9.90;;;;;;;;;;10050293;29;20341;-84
2022/11/08 09:26:18;;;;;;;12.87;9.13;;;11.90;99.90;;;;;;10038003;29;20326;-84
2022/11/08 09:31:21;;;;;;;14.17;9.77;;;11.80;99.90;;;;;;10055456;29;20302;-84
2022/11/08 09:36:23;;;;;;;23.73;11.77;;;12.20;99.90;;;;;;10027142;29;20278;-84
2022/11/08 09:41:26;;;;;;;14.60;9.57;;;;;;;;;;10037094;29;20258;-83
2022/11/08 09:46:52;;;;;;;17.20;9.67;;;13.80;99.90;;;;;;10038914;29;20335;-83
2022/11/08 09:51:57;;;;;;;15.53;8.23;;;13.10;99.90;;;;;;10039030;29;20234;-83
2022/11/08 09:57:04;;;;;;;11.63;8.40;;;12.50;99.90;;;;;;10054410;29;20256;-82
2022/11/08 10:02:21;;;;;;;13.33;9.73;;;12.40;99.90;;;;;;10053966;29;20319;-83
2022/11/08 10:07:30;;;;;;;15.63;8.47;;;12.80;99.90;;;;;;10051847;29;20275;-81
2022/11/08 10:13:15;;;;;;;11.90;8.17;;;12.80;99.90;;;;;;10047245;29;20278;-82
2022/11/08 10:18:57;;;;;;;10.77;6.90;;;12.80;99.90;;;;;;10035002;29;20229;-81
2022/11/08 10:23:59;;;;;;;12.70;7.67;;;14.30;99.90;;;;;;10021058;29;20260;-81
2022/11/08 10:29:14;;;;;;;12.17;7.77;;;13.70;99.90;;;;;;10044397;29;20313;-83
2022/11/08 10:34:23;;;;;;;15.40;7.37;;;13.00;99.90;;;;;;10012260;29;20245;-83
2022/11/08 10:39:27;;;;;;;15.30;8.30;;;;;;;;;;10036324;29;20300;-83
2022/11/08 10:44:30;;;;;;;10.47;6.33;;;12.80;99.90;;;;;;10024314;29;20270;-82
2022/11/08 10:49:38;;;;;;;12.53;6.87;;;13.10;99.90;;;;;;10041342;29;20314;-83
2022/11/08 10:54:46;;;;;;;11.73;6.87;;;13.20;99.90;;;;;;10044932;29;20392;-82
2022/11/08 10:59:49;;;;;;;12.50;7.00;;;13.10;99.90;;;;;;10022519;29;20315;-82
2022/11/08 11:05:11;;;;;;;12.43;8.63;;;13.40;99.90;;;;;;10019631;29;20258;-83
2022/11/08 11:10:24;;;;;;;12.80;7.53;;;13.60;99.90;;;;;;10015883;29;20250;-83
2022/11/08 11:15:35;;;;;;;13.50;7.30;;;13.30;99.90;;;;;;10046365;29;20246;-82
2022/11/08 11:20:38;;;;;;;14.70;6.53;;;13.40;99.90;;;;;;10017043;29;20379;-82
2022/11/08 11:25:50;;;;;;;13.97;5.90;;;13.40;99.90;;;;;;10030612;29;20268;-82
2022/11/08 11:31:14;;;;;;;12.77;6.50;;;13.50;99.90;;;;;;10047605;29;20683;-83
2022/11/08 11:36:20;;;;;;;14.50;5.73;;;13.40;99.90;;;;;;10036645;29;20275;-82
2022/11/08 11:41:47;;;;;;;14.47;5.73;;;13.50;99.90;;;;;;10036345;29;20278;-82
2022/11/08 11:47:05;;;;;;;8.77;4.70;;;13.50;99.90;;;;;;10044262;29;20261;-82
2022/11/08 11:52:17;;;;;;;9.33;5.60;;;13.60;99.90;;;;;;10024227;29;20247;-81
2022/11/08 11:57:22;;;;;;;12.50;5.23;;;13.90;99.90;;;;;;10038254;29;20257;-82
2022/11/08 12:02:37;;;;;;;10.33;5.30;;;13.70;99.90;;;;;;10051813;29;20248;-82
2022/11/08 12:08:12;;;;;;;9.40;4.23;;;13.80;99.90;;;;;;10033214;29;20304;-83
2022/11/08 12:13:24;;;;;;;9.80;5.13;;;13.70;99.90;;;;;;10031528;29;20241;-82
2022/11/08 12:18:40;;;;;;;8.40;5.13;;;13.80;99.90;;;;;;10053004;29;20257;-83
2022/11/08 12:23:51;;;;;;;7.17;5.50;;;13.70;99.90;;;;;;10053282;29;20247;-82
2022/11/08 12:29:15;;;;;;;11.33;6.83;;;13.70;99.90;;;;;;10017887;29;20327;-82
2022/11/08 12:34:27;;;;;;;9.93;5.63;;;13.70;99.90;;;;;;9998457;29;20256;-83
2022/11/08 12:40:04;;;;;;;11.17;5.30;;;13.60;99.90;;;;;;10041388;29;20262;-82
2022/11/08 12:45:30;;;;;;;11.67;5.27;;;13.70;99.90;;;;;;10036636;29;20271;-82
2022/11/08 12:50:54;;;;;;;9.17;5.30;;;13.60;99.90;;;;;;10041446;29;20652;-82
2022/11/08 12:56:09;;;;;;;9.50;5.07;;;13.60;99.90;;;;;;10050121;29;20289;-82
2022/11/08 13:01:15;;;;;;;12.53;7.00;;;13.60;99.90;;;;;;10024796;29;20763;-81
2022/11/08 13:06:33;;;;;;;9.90;5.97;;;13.50;99.90;;;;;;10042809;29;20277;-82
2022/11/08 13:11:40;;;;;;;7.83;5.00;;;13.50;99.90;;;;;;10005747;29;20293;-82
2022/11/08 13:17:25;;;;;;;9.97;5.03;;;13.50;99.90;;;;;;10022847;29;20213;-80
2022/11/08 13:22:27;;;;;;;7.13;4.63;;;13.40;99.90;;;;;;10051873;29;20255;-81
2022/11/08 13:27:41;;;;;;;8.83;4.20;;;13.60;99.90;;;;;;10058252;29;20276;-81
2022/11/08 13:33:02;;;;;;;6.23;4.30;;;13.40;99.90;;;;;;10042580;29;20271;-81
2022/11/08 13:38:33;;;;;;;10.20;5.20;;;13.30;99.90;;;;;;10026717;29;20660;-81
2022/11/08 13:43:35;;;;;;;6.80;5.00;;;13.40;99.90;;;;;;10054137;29;20697;-82
2022/11/08 13:48:41;;;;;;;10.33;5.77;;;13.30;99.90;;;;;;10017789;29;20681;-81
2022/11/08 13:53:48;;;;;;;8.20;6.47;;;13.10;99.90;;;;;;10041980;29;20304;-81
2022/11/08 13:58:51;;;;;;;17.23;7.57;;;13.00;99.90;;;;;;10030537;29;20256;-81
2022/11/08 14:03:56;;;;;;;9.80;6.57;;;12.80;99.90;;;;;;10001937;29;20257;-81
2022/11/08 14:09:09;;;;;;;13.60;6.73;;;12.70;99.90;;;;;;10042242;29;20265;-82
2022/11/08 14:14:27;;;;;;;10.70;6.43;;;12.70;99.90;;;;;;10041710;29;20301;-82
2022/11/08 14:19:33;;;;;;;17.20;8.60;;;12.60;99.90;;;;;;10040605;29;20212;-81
2022/11/08 14:24:37;;;;;;;10.57;6.67;;;12.50;99.90;;;;;;10024314;29;20298;-81
2022/11/08 14:29:40;;;;;;;15.40;7.67;;;12.40;99.90;;;;;;10055480;29;20324;-81
2022/11/08 14:34:44;;;;;;;17.13;8.47;;;12.30;99.90;;;;;;10040858;29;20249;-81
2022/11/08 14:39:47;;;;;;;15.23;8.40;;;12.20;99.90;;;;;;10039296;29;20273;-82
2022/11/08 14:44:55;;;;;;;14.37;7.27;;;12.60;99.90;;;;;;10056486;29;20255;-82
2022/11/08 14:49:59;;;;;;;14.80;8.03;;;12.10;99.90;;;;;;10040055;29;20250;-82
2022/11/08 14:55:08;;;;;;;10.83;7.53;;;11.70;99.90;;;;;;10024986;29;20632;-81
2022/11/08 15:00:15;;;;;;;14.17;7.30;;;11.50;99.90;;;;;;10055848;29;20303;-82
2022/11/08 15:05:30;;;;;;;11.40;7.10;;;11.20;99.90;;;;;;10055235;29;20250;-81
2022/11/08 15:10:33;;;;;;;13.83;7.30;;;11.00;99.90;;;;;;10038175;29;20679;-82
2022/11/08 15:15:36;;;;;;;14.07;8.43;;;10.80;99.90;;;;;;10038842;29;20274;-82
2022/11/08 15:20:40;;;;;;;13.77;7.43;;;10.70;99.90;;;;;;10055091;29;20335;-82
2022/11/08 15:25:42;;;;;;;17.63;9.57;;;10.50;99.90;;;;;;10038250;29;20275;-81
2022/11/08 15:30:46;;;;;;;19.07;9.03;;;10.40;99.90;;;;;;10038801;29;20293;-82
2022/11/08 15:35:49;;;;;;;18.73;11.17;;;10.10;99.90;;;;;;10054421;29;20655;-82
2022/11/08 15:40:54;;;;;;;21.63;11.83;;;10.10;99.90;;;;;;10054354;29;20259;-81
2022/11/08 15:45:59;;;;;;;17.93;10.80;;;9.90;99.90;;;;;;10035233;29;20261;-82
2022/11/08 15:51:03;;;;;;;25.93;13.27;;;9.80;99.90;;;;;;10028938;29;21142;-81
2022/11/08 15:56:06;;;;;;;32.73;16.23;;;9.60;99.90;;;;;;9999720;29;20253;-82
2022/11/08 16:01:19;;;;;;;18.37;13.83;;;9.50;99.90;;;;;;9999151;29;20670;-82
2022/11/08 16:06:22;;;;;;;28.07;14.60;;;9.40;99.90;;;;;;10015573;29;20262;-82
2022/11/08 16:11:24;;;;;;;28.97;14.97;;;9.40;99.90;;;;;;10015157;29;20670;-82
2022/11/08 16:16:27;;;;;;;34.00;17.90;;;9.30;99.90;;;;;;9983655;29;20257;-82
2022/11/08 16:21:36;;;;;;;28.23;16.63;;;9.10;99.90;;;;;;10022868;29;20249;-82
2022/11/08 16:26:41;;;;;;;25.10;15.57;;;9.00;99.90;;;;;;10034719;29;20306;-82
2022/11/08 16:31:44;;;;;;;28.93;17.73;;;8.90;99.90;;;;;;10035414;29;20650;-81
2022/11/08 16:36:48;;;;;;;33.03;18.47;;;8.90;99.90;;;;;;10035801;29;20269;-81
2022/11/08 16:41:51;;;;;;;34.47;17.50;;;9.00;99.90;;;;;;10035100;29;20258;-82
2022/11/08 16:46:54;;;;;;;22.20;16.13;;;10.00;99.90;;;;;;10028047;29;20301;-83
2022/11/08 16:51:56;;;;;;;24.87;14.77;;;9.30;99.90;;;;;;10051794;29;20279;-82
2022/11/08 16:56:59;;;;;;;26.67;15.70;;;9.10;99.90;;;;;;10034145;29;20261;-82
2022/11/08 17:02:29;;;;;;;25.60;14.97;;;9.10;99.90;;;;;;10034294;29;20305;-82
2022/11/08 17:07:33;;;;;;;25.83;16.07;;;9.20;99.90;;;;;;10033141;29;20269;-83
2022/11/08 17:12:35;;;;;;;22.43;14.20;;;9.10;99.90;;;;;;10050355;29;20245;-82
2022/11/08 17:17:38;;;;;;;22.90;13.30;;;9.10;99.90;;;;;;10037112;29;20250;-81
2022/11/08 17:22:42;;;;;;;24.87;15.03;;;9.00;99.90;;;;;;10045205;29;20256;-81
2022/11/08 17:27:46;;;;;;;23.67;14.43;;;9.10;99.90;;;;;;10034583;29;20294;-81
2022/11/08 17:32:48;;;;;;;22.77;14.50;;;9.10;99.90;;;;;;10051317;29;20249;-81
2022/11/08 17:37:52;;;;;;;30.67;15.63;;;9.10;99.90;;;;;;10040662;29;20724;-82
2022/11/08 17:42:55;;;;;;;33.57;17.57;;;9.00;99.90;;;;;;10049387;29;20257;-82
2022/11/08 17:47:57;;;;;;;30.93;17.47;;;8.90;99.90;;;;;;10056669;29;20265;-82
2022/11/08 17:53:00;;;;;;;29.60;17.10;;;9.00;99.90;;;;;;10044695;29;20237;-82
2022/11/08 17:58:02;;;;;;;31.17;17.27;;;9.10;99.90;;;;;;10023684;29;20250;-81
2022/11/08 18:03:08;;;;;;;32.30;17.80;;;9.10;99.90;;;;;;10024072;29;20249;-82
2022/11/08 18:08:16;;;;;;;33.23;19.03;;;9.10;99.90;;;;;;10036913;29;20780;-83
2022/11/08 18:13:20;;;;;;;33.43;19.30;;;9.10;99.90;;;;;;10039863;29;20257;-83
2022/11/08 18:18:23;;;;;;;32.43;19.40;;;9.10;99.90;;;;;;10027428;29;20957;-81
2022/11/08 18:23:26;;;;;;;27.53;18.40;;;9.10;99.90;;;;;;10035646;29;20253;-83
2022/11/08 18:28:29;;;;;;;33.07;20.57;;;9.10;99.90;;;;;;10038391;29;20661;-83
2022/11/08 18:33:32;;;;;;;33.60;19.83;;;9.10;99.90;;;;;;10038589;29;20277;-83
2022/11/08 18:38:39;;;;;;;41.77;21.83;;;9.10;99.90;;;;;;10021277;29;20269;-82
2022/11/08 18:43:42;;;;;;;35.53;22.33;;;9.10;99.90;;;;;;10024852;29;20322;-82
2022/11/08 18:48:45;;;;;;;41.80;24.03;;;9.00;99.90;;;;;;10014160;29;20274;-82
2022/11/08 18:53:48;;;;;;;44.07;27.07;;;8.90;99.90;;;;;;10036769;29;20250;-82
2022/11/08 18:58:53;;;;;;;44.23;26.47;;;8.90;99.90;;;;;;10016247;29;21303;-81
2022/11/08 19:03:56;;;;;;;42.07;25.00;;;8.80;99.90;;;;;;10024973;29;20249;-82
2022/11/08 19:08:59;;;;;;;40.53;23.10;;;8.80;99.90;;;;;;10027340;29;20321;-85
2022/11/08 19:14:02;;;;;;;42.77;23.70;;;8.70;99.90;;;;;;10050446;29;20254;-83
2022/11/08 19:19:05;;;;;;;37.17;21.90;;;9.40;99.90;;;;;;9680994;29;9999905;-82
2022/11/08 19:24:09;;;;;;;42.37;22.87;;;8.90;99.90;;;;;;10034518;29;20886;-82
2022/11/08 19:29:13;;;;;;;36.70;21.47;;;8.80;99.90;;;;;;10049279;29;20246;-81
2022/11/08 19:34:16;;;;;;;40.23;22.20;;;8.80;99.90;;;;;;10051238;29;20238;-81
2022/11/08 19:39:19;;;;;;;37.47;21.77;;;8.90;99.90;;;;;;10036133;29;20329;-81
2022/11/08 19:44:23;;;;;;;36.20;17.20;;;8.90;99.90;;;;;;10051101;29;20253;-82
2022/11/08 19:49:27;;;;;;;39.20;23.00;;;9.50;99.90;;;;;;10041082;29;20337;-82
2022/11/08 19:54:30;;;;;;;36.97;22.20;;;9.20;99.90;;;;;;10050158;29;20297;-83
2022/11/08 19:59:33;;;;;;;41.47;24.03;;;8.70;99.90;;;;;;10009774;29;20302;-83
2022/11/08 20:04:36;;;;;;;44.83;24.77;;;8.70;99.90;;;;;;10013138;29;20246;-84
2022/11/08 20:09:40;;;;;;;35.83;23.43;;;8.50;99.90;;;;;;10035336;29;20743;-83
2022/11/08 20:14:43;;;;;;;48.50;25.83;;;8.50;99.90;;;;;;10025869;29;20254;-82
2022/11/08 20:19:45;;;;;;;47.63;26.13;;;8.20;99.90;;;;;;10014576;29;20736;-83
2022/11/08 20:24:48;;;;;;;45.27;25.03;;;8.00;99.90;;;;;;9997823;29;20314;-83
2022/11/08 20:29:51;;;;;;;48.87;24.53;;;7.90;99.90;;;;;;10021014;29;20326;-85
2022/11/08 20:34:53;;;;;;;43.07;24.77;;;7.90;99.90;;;;;;10052619;29;20241;-84
2022/11/08 20:39:56;;;;;;;45.67;24.63;;;7.70;99.90;;;;;;10022589;29;20795;-84
2022/11/08 20:44:59;;;;;;;44.47;26.47;;;7.70;99.90;;;;;;10030291;29;20263;-83
2022/11/08 20:50:01;;;;;;;48.77;25.27;;;7.60;99.90;;;;;;10030981;29;20314;-83
2022/11/08 20:55:04;;;;;;;39.97;25.67;;;7.60;99.90;;;;;;10037612;29;20237;-83
2022/11/08 21:00:07;;;;;;;41.57;25.20;;;7.60;99.90;;;;;;10031888;29;20245;-83
2022/11/08 21:05:15;;;;;;;42.17;25.00;;;7.50;99.90;;;;;;10036272;29;20657;-83
2022/11/08 21:10:17;;;;;;;42.07;25.13;;;7.50;99.90;;;;;;10035335;29;20265;-82
2022/11/08 21:15:45;;;;;;;44.43;26.90;;;7.50;99.90;;;;;;10026181;29;20245;-85
2022/11/08 21:20:49;;;;;;;42.60;25.30;;;7.60;99.90;;;;;;10038781;29;20253;-84
2022/11/08 21:25:51;;;;;;;42.23;24.40;;;7.60;99.90;;;;;;10047907;29;20391;-83
2022/11/08 21:30:54;;;;;;;43.67;24.67;;;7.60;99.90;;;;;;10022226;29;20291;-83
2022/11/08 21:35:57;;;;;;;43.23;24.77;;;7.70;99.90;;;;;;10004316;29;20262;-83
2022/11/08 21:41:04;;;;;;;35.70;23.70;;;7.50;99.90;;;;;;10033186;29;20249;-84
2022/11/08 21:46:24;;;;;;;43.87;24.73;;;7.60;99.90;;;;;;10039388;29;20293;-84
2022/11/08 21:51:28;;;;;;;37.50;23.43;;;7.40;99.90;;;;;;10045915;29;20322;-84
2022/11/08 21:56:33;;;;;;;41.07;24.47;;;7.30;99.90;;;;;;10027246;29;20241;-84
2022/11/08 22:01:35;;;;;;;41.40;25.07;;;7.10;99.90;;;;;;10056969;29;20297;-85
2022/11/08 22:06:38;;;;;;;59.77;27.63;;;7.00;99.90;;;;;;10038684;29;20249;-84
2022/11/08 22:11:47;;;;;;;43.90;24.13;;;7.00;99.90;;;;;;10054701;29;20246;-84
2022/11/08 22:16:50;;;;;;;50.00;26.30;;;7.00;99.90;;;;;;10043858;29;20310;-84
2022/11/08 22:21:53;;;;;;;48.23;24.43;;;6.90;99.90;;;;;;10003389;29;20242;-84
2022/11/08 22:26:55;;;;;;;46.80;25.90;;;6.80;99.90;;;;;;10023878;29;20222;-85
2022/11/08 22:31:58;;;;;;;51.17;25.80;;;6.70;99.90;;;;;;10041261;29;20750;-84
2022/11/08 22:37:00;;;;;;;48.33;26.40;;;6.60;99.90;;;;;;10023759;29;21606;-85
2022/11/08 22:42:03;;;;;;;62.60;30.80;;;6.50;99.90;;;;;;10057174;29;20245;-84
2022/11/08 22:47:06;;;;;;;60.20;30.80;;;6.50;99.90;;;;;;10056119;29;20294;-85
2022/11/08 22:52:08;;;;;;;47.57;28.23;;;6.50;99.90;;;;;;10039865;29;20249;-84
2022/11/08 22:57:11;;;;;;;38.27;23.53;;;6.60;99.90;;;;;;10037606;29;21074;-83
2022/11/08 23:02:13;;;;;;;38.97;23.67;;;6.50;99.90;;;;;;10039892;29;20290;-83
2022/11/08 23:07:16;;;;;;;41.43;23.17;;;6.60;99.90;;;;;;10025551;29;20237;-83
2022/11/08 23:17:40;;;;;;;38.10;22.33;;;6.50;99.90;;;;;;10050257;29;20286;-83
2022/11/08 23:33:26;;;;;;;38.43;23.10;;;6.30;99.90;;;;;;10034460;29;20238;-83
2022/11/08 23:38:29;;;;;;;38.77;22.73;;;6.30;99.90;;;;;;10036356;29;20727;-83
2022/11/08 23:48:52;;;;;;;40.97;22.40;;;6.30;99.90;;;;;;10054694;29;20333;-84
2022/11/08 23:53:55;;;;;;;42.30;24.53;;;6.20;99.90;;;;;;10051878;29;20249;-84
2022/11/08 23:58:59;;;;;;;41.43;23.67;;;6.10;99.90;;;;;;10000097;29;20755;-84
